Du har inga inställningar för hoppväder.nu

Hoppväder.nu

Senast uppdaterat 11:31

UTC-tid

2018-05-22 kl. 09:31


Sol och måne

Solen går upp 4:06 och går ner 21:32 (beräknade cirkatider)
Nästa fullmåne blir om 7 dagar (2018-05-29)

METAR

ESKN (Skavsta)
(11 minuter sedan)
ESKN 220920Z 17005KT 110V230 CAVOK 21/04 Q1021=



ESSB (Bromma)
(11 minuter sedan)
ESSB 220920Z 13004KT 080V180 CAVOK 22/03 Q1021=



ESOE (Örebro)
(11 minuter sedan)
ESOE 220920Z 13005KT 080V190 CAVOK 22/04 Q1020=



ESSL (Linköping)
(11 minuter sedan)
ESSL 220920Z VRB03KT CAVOK 21/04 Q1020=



ESSP (Norrköping)
(11 minuter sedan)
ESSP 220920Z 05004KT 010V100 CAVOK 22/04 Q1020=



TAF

ESKN (Skavsta)
(241 minuter sedan)
ESKN 220530Z 2206/2306 12005KT CAVOK=



ESSB (Bromma)
(61 minuter sedan)
ESSB 220830Z 2209/2218 16004KT CAVOK=



ESOE (Örebro)
(61 minuter sedan)
ESOE 220830Z 2209/2218 19003KT CAVOK=



ESSL (Linköping)
(61 minuter sedan)
ESSL 220830Z 2209/2218 VRB02KT CAVOK BECMG 2209/2211 07005G10KT RMK MIL=



ESSP (Norrköping)
(61 minuter sedan)
ESSP 220830Z 2209/2218 14003KT CAVOK=





Kodnycklar till TAF och METAR






LHP

(Nyköping är område G1b i Södra delen)

ÖVERSIKT FÖR OMRÅDE B UTFÄRDAD 220744
GÄLLANDE DEN 22 MAJ 2018 MELLAN 08 OCH 16 UTC


Väderöversikt

En högtrycksrygg täcker södra Sverige och medför torrt väder

Sikt under 5 kilometer eller molnbas under 1000 fot
Väntas inte förekomma under perioden.

Måttlig eller svår isbildning
08-10UTC: Område Sydöstra delen
10-14UTC: Område Södra delen och Sydöstra delen
14-16UTC: I hela området


Måttlig eller svår turbulens
Väntas inte förekomma under perioden



PROGNOS FÖR OMRÅDE B DEN SÖDRA DELEN UTFÄRDAD 220744
GÄLLANDE DEN 22 MAJ 2018 MELLAN 08 OCH 16 UTC

Måttlig eller svår turbulens
08-16UTC: I hela området: Väntas inte förekomma under perioden

Måttlig eller svår isbildning
08-10UTC: Område G3c,G3d: Väntas inte förekomma under perioden

08-12UTC: Område G3a,G3b: Väntas inte förekomma under perioden

08-16UTC: Område G1a,G1b,G1c,G2a,G2b,G2c: Väntas inte förekomma under perioden

10-16UTC: Område G3c,G3d: måttlig isbildning FL070 - FL100

12-16UTC: Område G3a,G3b: måttlig isbildning FL070 - FL100


Sikt/Väder/Moln
08-16UTC: I hela området: Sikt >8km. Molnbas >2000ft.

Molnöversida
08-10UTC: Område G1b,G3c,G3d: Ingen prognos
Område G1a,G2a,G2b,G2c,G3a: Molnöversida > FL125.

08-12UTC: Område G3b: Ingen prognos

08-16UTC: Område G1c: Ingen prognos

10-12UTC: Område G3a: Ingen prognos
Område G1a,G1b: Molnöversida FL100.

10-16UTC: Område G2a,G2b,G2c: Ingen prognos
Område G3c,G3d: Molnöversida FL100.

12-14UTC: Område G3a: Molnöversida FL100.

12-16UTC: Område G1a,G1b: Ingen prognos
Område G3b: Molnöversida FL100.

14-16UTC: Område G3a: Ingen prognos


CB/TCU Moln
08-16UTC: I hela området: Väntas inte förekomma under perioden

Nollgradersisoterm
08-12UTC: Noll grader FL070 - FL095.
12-16UTC: Noll grader FL070 - FL090.

Vind vid marken
08-10UTC: Område G2c: SO-S/2-4 knop, byar upp till 14 knop.
Område G3c: N/0-6 knop, byar upp till 15 knop.
Område G2b: SO-S/0-7 knop, byar upp till 14 knop.
Område G2a: S/0-7 knop, byar upp till 15 knop.
Område G1a: O/0-6 knop, byar upp till 15 knop.
Område G1c: O/2-7 knop, byar upp till 18 knop.
Område G1b: O/0-7 knop, byar upp till 19 knop.
Område G3b: SV/0-4 knop, byar upp till 13 knop.
Område G3d: O/0-6 knop, byar upp till 17 knop.
Område G3a: SO-S/0-4 knop, byar upp till 15 knop.

10-12UTC: Område G2a,G2b: SO-S/0-8 knop, byar upp till 19 knop.
Område G3d: O-SO/1-10 knop, byar upp till 22 knop.
Område G1a: O-SO/2-9 knop, byar upp till 19 knop.
Område G1c: NO-O/1-6 knop, byar upp till 19 knop.
Område G3a: SO-S/0-11 knop, byar upp till 24 knop.
Område G1b: O-SO/2-10 knop, byar upp till 21 knop.
Område G2c: SO-S/3-7 knop, byar upp till 19 knop.
Område G3b: S/0-10 knop, byar upp till 23 knop.
Område G3c: NO-O/0-10 knop, byar upp till 23 knop.

12-14UTC: Område G2b: SO-S/0-9 knop, byar upp till 19 knop.
Område G1b: O-SO/1-9 knop, byar upp till 22 knop.
Område G3d: SO/0-10 knop, byar upp till 21 knop.
Område G2a: S/0-7 knop, byar upp till 19 knop.
Område G1a: SO/2-12 knop, byar upp till 20 knop.
Område G1c: O-SO/1-7 knop, byar upp till 20 knop.
Område G3c: NO-O/1-13 knop, byar upp till 25 knop.
Område G3b: SO-S/0-9 knop, byar upp till 22 knop.
Område G2c: SO/3-8 knop, byar upp till 20 knop.
Område G3a: SO-S/0-10 knop, byar upp till 23 knop.

14-16UTC: Område G1c: SO-S/2-9 knop, byar upp till 22 knop.
Område G1a: SO/3-10 knop, byar upp till 20 knop.
Område G3a: S/0-9 knop, byar upp till 23 knop.
Område G2b: S/0-12 knop, byar upp till 21 knop.
Område G2a: S-SV/1-6 knop, byar upp till 18 knop.
Område G2c: SO-S/3-10 knop, byar upp till 21 knop.
Område G3d: SO/0-9 knop, byar upp till 23 knop.
Område G1b: O-SO/2-10 knop, byar upp till 19 knop.
Område G3b: SO/0-7 knop, byar upp till 18 knop.
Område G3c: NO-O/1-10 knop, byar upp till 26 knop.


Vind och temperatur
2000ft:
08-10UTC: 140/10kt +11.
10-12UTC: 150/10kt +12.
12-14UTC: 160/11kt +13.
14-16UTC: 170/12kt +13.

FL50:
08-10UTC: 150/16kt +3.
10-12UTC: 150/13kt +4.
12-14UTC: 160/13kt +4.
14-16UTC: 170/12kt +4.

FL100:
08-10UTC: 130/13kt -5.
10-12UTC: 110/9kt -6.
12-14UTC: 80/12kt -7.
14-16UTC: 50/16kt -8.

Lägsta QNH
1017 hPa.

OBS! endast utbredd måttlig eller svår isbildning och turbulens prognostiseras i LLF.
Avsaknad av isbildning och turbulens i prognosen utesluter inte förekomst av lätt isbildning och turbulens.
För indikation på lätt isbildning, var vänlig kontrollera om prognosen för molntopp ligger högre än nollgradersisotermen.
Förekomst av TCU eller CB medför alltid en risk för måttlig eller svår isbildning och turbulens även om det inte framgår explicit av prognosen.





Spotting

Hur fungerar spotthjälpen och Vindkartan?

Markvind är ca 0-4 m/s med byar på 10 m/s.
Vind på 600 m ca 5 m/s.
Vind på 1500 m ca 8 m/s.
Vind på 3000 m ca 7 m/s.
YL-KAM flyger ca 34 m/s över marken på finalen.
Du driver ca 301 m bakåt i frifall. (401 m)
Lämplig spot är 1 sekunder eller 34 m efter gropen.
(3 s eller 103 m)
För små grupper eller ensamhoppare bör man vänta 4-6 sekunder mellan grupperna.
För större grupper bör man vänta 9-11 sekunder mellan grupperna.


Vindkartan

Senast uppdaterad 11:31



All data kommer från LFV.se